Time;durP1;ratioP1;P1;durP2;ratioP2;P2;SDS_P1;SDS_P2;PMS_P1;PMS_P2;Temp;Humidity;BMP_temperature;BMP_pressure;BME280_temperature;BME280_humidity;BME280_pressure;Samples;Min_cycle;Max_cycle;Signal;HPM_P1;HPM_P2
2022/04/24 00:01:12;;;;;;;11.45;6.57;;;13.00;98.80;;;;;;5093417;28;20065;-77
2022/04/24 00:03:38;;;;;;;12.23;7.40;;;13.00;99.10;;;;;;5094002;28;20024;-76
2022/04/24 00:06:04;;;;;;;10.50;6.30;;;12.90;99.10;;;;;;5093442;28;20024;-76
2022/04/24 00:08:30;;;;;;;10.75;6.50;;;12.90;99.40;;;;;;5095167;28;20052;-77
2022/04/24 00:10:55;;;;;;;10.95;6.47;;;12.90;99.50;;;;;;5093250;28;20030;-77
2022/04/24 00:13:23;;;;;;;10.65;6.68;;;12.80;99.70;;;;;;5094025;28;20106;-77
2022/04/24 00:15:49;;;;;;;9.63;6.53;;;12.80;99.60;;;;;;5093747;28;20464;-77
2022/04/24 00:18:14;;;;;;;10.68;6.35;;;12.70;99.80;;;;;;5092804;28;20074;-77
2022/04/24 00:20:42;;;;;;;10.52;6.47;;;12.70;99.70;;;;;;5094987;28;20099;-78
2022/04/24 00:23:07;;;;;;;9.38;6.13;;;12.70;99.90;;;;;;5094339;28;20016;-78
2022/04/24 00:25:33;;;;;;;9.02;6.43;;;12.60;99.90;;;;;;5093651;28;20469;-77
2022/04/24 00:28:00;;;;;;;8.90;6.43;;;12.60;99.90;;;;;;5093056;28;20028;-78
2022/04/24 00:30:26;;;;;;;8.40;6.47;;;12.50;99.90;;;;;;5094823;28;20012;-78
2022/04/24 00:32:52;;;;;;;10.15;6.45;;;12.50;99.90;;;;;;5093292;28;20150;-78
2022/04/24 00:35:18;;;;;;;11.75;6.20;;;12.40;99.90;;;;;;5093771;28;20020;-78
2022/04/24 00:37:43;;;;;;;10.75;6.53;;;12.40;99.90;;;;;;5093438;28;20082;-78
2022/04/24 00:40:10;;;;;;;8.77;6.18;;;12.40;99.90;;;;;;5093101;28;20031;-78
2022/04/24 00:42:35;;;;;;;13.13;6.93;;;12.40;99.90;;;;;;5093454;28;20106;-78
2022/04/24 00:45:01;;;;;;;9.63;6.57;;;12.40;99.90;;;;;;5093030;28;20119;-78
2022/04/24 00:47:27;;;;;;;10.20;6.38;;;12.40;99.90;;;;;;5093519;28;20472;-78
2022/04/24 00:49:52;;;;;;;10.63;5.97;;;12.40;99.90;;;;;;5094120;28;20032;-78
2022/04/24 00:52:19;;;;;;;9.73;6.25;;;12.40;99.90;;;;;;5094291;28;20028;-78
2022/04/24 00:54:44;;;;;;;10.40;6.18;;;12.40;99.90;;;;;;5094467;28;20044;-78
2022/04/24 00:57:14;;;;;;;11.93;6.90;;;12.40;99.90;;;;;;5092653;28;20088;-78
2022/04/24 00:59:40;;;;;;;10.88;6.35;;;12.30;99.90;;;;;;5093142;28;20028;-78
2022/04/24 01:02:08;;;;;;;9.75;6.70;;;12.30;99.90;;;;;;5094292;28;20020;-78
2022/04/24 01:04:37;;;;;;;8.85;5.82;;;12.40;99.90;;;;;;5093743;28;20044;-78
2022/04/24 01:07:03;;;;;;;10.88;6.72;;;12.30;99.90;;;;;;5092722;28;20032;-78
2022/04/24 01:09:32;;;;;;;10.20;6.72;;;12.30;99.90;;;;;;5093266;28;20103;-78
2022/04/24 01:11:57;;;;;;;9.27;6.05;;;12.40;99.90;;;;;;5092766;28;20020;-78
2022/04/24 01:14:25;;;;;;;10.63;6.20;;;12.40;99.90;;;;;;5094519;28;20428;-78
2022/04/24 01:16:51;;;;;;;9.35;6.13;;;12.40;99.90;;;;;;5093057;28;20028;-78
2022/04/24 01:19:17;;;;;;;11.27;6.13;;;12.40;99.90;;;;;;5092541;28;20089;-78
2022/04/24 01:21:47;;;;;;;8.57;5.90;;;12.40;99.90;;;;;;5094198;28;20474;-78
2022/04/24 01:24:15;;;;;;;9.15;5.88;;;12.40;99.90;;;;;;5093191;28;20024;-78
2022/04/24 01:26:40;;;;;;;8.73;5.90;;;12.40;99.90;;;;;;5092798;28;20028;-77
2022/04/24 01:29:06;;;;;;;8.60;5.97;;;12.40;99.90;;;;;;5092097;28;20067;-77
2022/04/24 01:31:33;;;;;;;9.63;6.10;;;12.40;99.90;;;;;;5092796;28;20020;-77
2022/04/24 01:33:59;;;;;;;9.82;6.00;;;12.40;99.90;;;;;;5093354;28;20028;-77
2022/04/24 01:36:24;;;;;;;11.98;6.47;;;12.40;99.90;;;;;;5092591;28;20023;-79
2022/04/24 01:38:50;;;;;;;8.20;5.55;;;12.40;99.90;;;;;;5093030;28;20016;-79
2022/04/24 01:41:16;;;;;;;9.10;5.72;;;12.40;99.90;;;;;;5092398;28;20062;-79
2022/04/24 01:43:42;;;;;;;8.65;6.20;;;12.40;99.90;;;;;;5092977;28;20361;-79
2022/04/24 01:46:09;;;;;;;8.32;6.10;;;12.40;99.90;;;;;;5092363;28;20024;-79
2022/04/24 01:48:35;;;;;;;9.63;6.00;;;12.40;99.90;;;;;;5092797;28;20402;-79
2022/04/24 01:51:07;;;;;;;8.88;5.75;;;12.50;99.90;;;;;;5092046;28;20027;-78
2022/04/24 01:53:33;;;;;;;9.88;5.43;;;12.40;99.90;;;;;;5093822;28;20116;-79
2022/04/24 01:56:08;;;;;;;9.13;5.47;;;12.50;99.90;;;;;;5093450;28;20510;-78
2022/04/24 01:58:35;;;;;;;8.50;5.53;;;12.50;99.90;;;;;;5093397;28;20055;-79
2022/04/24 02:01:02;;;;;;;8.57;5.38;;;12.50;99.90;;;;;;5092146;28;20365;-78
2022/04/24 02:03:29;;;;;;;10.10;6.18;;;12.40;99.90;;;;;;5093894;28;20107;-79
2022/04/24 02:05:55;;;;;;;9.05;5.93;;;12.40;99.90;;;;;;5092841;28;20106;-79
2022/04/24 02:08:21;;;;;;;8.27;5.88;;;12.50;99.90;;;;;;5092964;28;20028;-79
2022/04/24 02:10:47;;;;;;;8.60;5.88;;;12.40;99.90;;;;;;5093795;28;20463;-78
2022/04/24 02:13:13;;;;;;;9.95;5.60;;;12.40;99.90;;;;;;5092132;28;20035;-78
2022/04/24 02:15:39;;;;;;;10.63;5.95;;;12.40;99.90;;;;;;5093650;28;20045;-77
2022/04/24 02:18:04;;;;;;;8.95;6.03;;;12.40;99.90;;;;;;5095823;28;20118;-77
2022/04/24 02:20:30;;;;;;;9.80;6.10;;;12.30;99.90;;;;;;5096584;28;20031;-77
2022/04/24 02:22:57;;;;;;;8.02;5.95;;;12.40;99.90;;;;;;5097401;28;20069;-77
2022/04/24 02:25:24;;;;;;;9.63;6.45;;;12.40;99.90;;;;;;5097582;28;20023;-77
2022/04/24 02:27:53;;;;;;;10.18;6.22;;;12.40;99.90;;;;;;5096255;28;20020;-77
2022/04/24 02:30:26;;;;;;;9.88;6.32;;;12.40;99.90;;;;;;5095673;28;20267;-77
2022/04/24 02:32:52;;;;;;;10.23;6.30;;;12.40;99.90;;;;;;5096562;28;20112;-77
2022/04/24 02:35:18;;;;;;;10.90;6.70;;;12.40;99.90;;;;;;5095529;28;20047;-77
2022/04/24 02:37:46;;;;;;;10.82;6.45;;;12.50;99.90;;;;;;5097058;28;20039;-77
2022/04/24 02:40:14;;;;;;;9.77;6.38;;;12.40;99.90;;;;;;5096988;28;20081;-78
2022/04/24 02:42:40;;;;;;;9.32;6.18;;;12.40;99.90;;;;;;5096194;28;20050;-78
2022/04/24 02:45:09;;;;;;;10.88;6.82;;;12.40;99.90;;;;;;5096694;28;20027;-78
2022/04/24 02:47:38;;;;;;;10.63;6.55;;;12.30;99.90;;;;;;5095750;28;20028;-78
2022/04/24 02:50:04;;;;;;;11.02;6.70;;;12.40;99.90;;;;;;5095875;28;20052;-77
2022/04/24 02:52:30;;;;;;;11.00;6.82;;;12.30;99.90;;;;;;5097077;28;20016;-78
2022/04/24 02:54:55;;;;;;;9.88;6.47;;;12.30;99.90;;;;;;5095965;28;20073;-78
2022/04/24 02:57:21;;;;;;;11.23;6.53;;;12.30;99.90;;;;;;5096287;28;20052;-78
2022/04/24 02:59:50;;;;;;;11.00;6.38;;;12.30;99.90;;;;;;5097026;28;20035;-77
2022/04/24 03:02:18;;;;;;;11.07;6.70;;;12.30;99.90;;;;;;5096376;28;20016;-77
2022/04/24 03:04:47;;;;;;;11.25;7.20;;;12.30;99.90;;;;;;5095850;28;20448;-77
2022/04/24 03:07:13;;;;;;;9.75;6.40;;;12.30;99.90;;;;;;5095082;28;20035;-77
2022/04/24 03:09:39;;;;;;;10.48;6.88;;;12.30;99.90;;;;;;5095997;28;20024;-78
2022/04/24 03:12:06;;;;;;;11.63;6.85;;;12.30;99.90;;;;;;5095127;28;20120;-77
2022/04/24 03:14:31;;;;;;;9.68;6.68;;;12.30;99.90;;;;;;5096648;28;20032;-78
2022/04/24 03:16:57;;;;;;;11.20;6.47;;;12.30;99.90;;;;;;5095045;28;20028;-78
2022/04/24 03:19:23;;;;;;;11.70;6.55;;;12.30;99.90;;;;;;5095144;28;20028;-77
2022/04/24 03:21:48;;;;;;;10.23;6.65;;;12.30;99.90;;;;;;5095588;28;20017;-78
2022/04/24 03:24:14;;;;;;;9.82;6.78;;;12.30;99.90;;;;;;5095956;28;20076;-78
2022/04/24 03:26:39;;;;;;;10.32;6.25;;;12.30;99.90;;;;;;5094856;28;20376;-78
2022/04/24 03:29:05;;;;;;;9.60;6.20;;;12.30;99.90;;;;;;5094323;28;20118;-77
2022/04/24 03:31:30;;;;;;;10.43;6.05;;;12.30;99.90;;;;;;5095139;28;20016;-78
2022/04/24 03:33:56;;;;;;;10.50;6.47;;;12.30;99.90;;;;;;5095006;28;20035;-78
2022/04/24 03:36:22;;;;;;;9.35;6.15;;;12.30;99.90;;;;;;5095677;28;20638;-77
2022/04/24 03:38:47;;;;;;;11.43;7.00;;;12.30;99.90;;;;;;5094893;28;20710;-78
2022/04/24 03:41:13;;;;;;;11.02;6.85;;;12.20;99.90;;;;;;5077373;28;20373;-78
2022/04/24 03:43:39;;;;;;;8.98;6.57;;;12.20;99.90;;;;;;5094341;28;20361;-77
2022/04/24 03:46:08;;;;;;;12.40;7.05;;;12.20;99.90;;;;;;5095433;28;20471;-76
2022/04/24 03:48:34;;;;;;;10.60;6.63;;;12.20;99.90;;;;;;5094996;28;20032;-77
2022/04/24 03:51:00;;;;;;;12.02;6.80;;;12.20;99.90;;;;;;5095963;28;20016;-77
2022/04/24 03:53:25;;;;;;;13.20;7.75;;;12.20;99.90;;;;;;5095371;28;20460;-77
2022/04/24 03:55:51;;;;;;;11.00;7.68;;;12.20;99.90;;;;;;5094276;28;20077;-78
2022/04/24 03:58:16;;;;;;;9.98;6.80;;;12.20;99.90;;;;;;5093440;28;20404;-77
2022/04/24 04:00:42;;;;;;;13.05;7.30;;;12.20;99.90;;;;;;5094675;28;20106;-78
2022/04/24 04:03:08;;;;;;;10.05;7.03;;;12.20;99.90;;;;;;5093519;28;20107;-77
2022/04/24 04:05:37;;;;;;;9.93;7.38;;;12.20;99.90;;;;;;5094363;28;20020;-77
2022/04/24 04:08:03;;;;;;;11.68;7.47;;;12.20;99.90;;;;;;5094502;28;20038;-78
2022/04/24 04:10:30;;;;;;;11.95;7.50;;;12.20;99.90;;;;;;5095040;28;20089;-78
2022/04/24 04:12:55;;;;;;;11.10;7.43;;;12.10;99.90;;;;;;5094654;28;20020;-78
2022/04/24 04:15:21;;;;;;;10.80;7.32;;;12.10;99.90;;;;;;5094091;28;20020;-78
2022/04/24 04:17:48;;;;;;;13.43;7.50;;;12.00;99.90;;;;;;5094449;28;20027;-78
2022/04/24 04:20:13;;;;;;;12.20;7.50;;;12.10;99.90;;;;;;5093708;28;20126;-78
2022/04/24 04:22:52;;;;;;;13.32;7.55;;;12.10;99.90;;;;;;5094023;28;20050;-77
2022/04/24 04:25:23;;;;;;;13.75;8.18;;;12.00;99.90;;;;;;5093482;28;20023;-77
2022/04/24 04:27:49;;;;;;;14.37;8.17;;;12.00;99.90;;;;;;5093909;28;20063;-78
2022/04/24 04:30:15;;;;;;;9.90;6.68;;;12.00;99.90;;;;;;5093246;28;20314;-77
2022/04/24 04:32:40;;;;;;;11.02;7.82;;;12.00;99.90;;;;;;5093683;28;20058;-78
2022/04/24 04:35:09;;;;;;;10.43;7.28;;;12.10;99.90;;;;;;5094583;28;20027;-77
2022/04/24 04:37:35;;;;;;;11.35;7.65;;;12.10;99.90;;;;;;5095090;28;20063;-78
2022/04/24 04:40:02;;;;;;;13.20;7.65;;;12.10;99.90;;;;;;5093778;28;20027;-78
2022/04/24 04:42:27;;;;;;;12.48;7.90;;;12.10;99.90;;;;;;5093332;28;20369;-78
2022/04/24 04:44:53;;;;;;;12.30;7.45;;;12.10;99.90;;;;;;5093399;28;20027;-78
2022/04/24 04:47:18;;;;;;;10.77;7.40;;;12.20;99.90;;;;;;5092888;28;20024;-77
2022/04/24 04:49:44;;;;;;;11.05;7.47;;;12.10;99.90;;;;;;5094366;28;20073;-77
2022/04/24 04:52:10;;;;;;;10.02;7.35;;;12.20;99.90;;;;;;5093792;28;20020;-77
2022/04/24 04:54:35;;;;;;;11.23;7.13;;;12.20;99.90;;;;;;5093294;28;20464;-78
2022/04/24 04:57:01;;;;;;;12.65;7.25;;;12.10;99.90;;;;;;5093465;28;20024;-78
2022/04/24 04:59:26;;;;;;;14.05;7.15;;;12.10;99.90;;;;;;5092968;28;20199;-77
2022/04/24 05:01:52;;;;;;;12.77;7.95;;;12.10;99.90;;;;;;5093184;28;20372;-77
2022/04/24 05:04:17;;;;;;;11.32;7.35;;;12.10;99.90;;;;;;5092502;28;20020;-78
2022/04/24 05:06:43;;;;;;;12.57;7.63;;;12.00;99.90;;;;;;5094156;28;20103;-78
2022/04/24 05:09:09;;;;;;;12.90;8.43;;;12.00;99.90;;;;;;5093905;28;20024;-77
2022/04/24 05:11:34;;;;;;;14.32;8.98;;;11.90;99.90;;;;;;5094746;28;20457;-78
2022/04/24 05:14:00;;;;;;;32.22;17.50;;;11.90;99.90;;;;;;5093060;28;20016;-78
2022/04/24 05:16:25;;;;;;;20.08;11.35;;;11.90;99.90;;;;;;5092469;28;20074;-78
2022/04/24 05:18:51;;;;;;;13.38;8.70;;;11.90;99.90;;;;;;5093537;28;20028;-78
2022/04/24 05:21:17;;;;;;;13.57;8.20;;;12.00;99.90;;;;;;5092933;28;20020;-78
2022/04/24 05:23:45;;;;;;;10.95;6.97;;;12.00;99.90;;;;;;5093226;28;20546;-79
2022/04/24 05:26:12;;;;;;;12.43;7.85;;;12.00;99.90;;;;;;5092752;28;20024;-79
2022/04/24 05:28:38;;;;;;;17.13;9.30;;;12.10;99.90;;;;;;5093419;28;20141;-79
2022/04/24 05:31:05;;;;;;;13.75;7.65;;;12.10;99.90;;;;;;5092966;28;20515;-78
2022/04/24 05:33:30;;;;;;;13.52;7.38;;;12.10;99.90;;;;;;5092318;28;20016;-77
2022/04/24 05:35:56;;;;;;;13.82;7.38;;;12.10;99.90;;;;;;5093564;28;20095;-77
2022/04/24 05:38:21;;;;;;;13.48;7.97;;;12.10;99.90;;;;;;5093044;28;20024;-77
2022/04/24 05:40:47;;;;;;;15.43;8.63;;;12.00;99.90;;;;;;5093004;28;20028;-78
2022/04/24 05:43:13;;;;;;;11.50;7.07;;;12.00;99.90;;;;;;5093253;28;20387;-77
2022/04/24 05:45:38;;;;;;;12.88;8.05;;;11.90;99.90;;;;;;5092766;28;20061;-78
2022/04/24 05:48:04;;;;;;;11.10;7.32;;;11.90;99.90;;;;;;5092660;28;20452;-78
2022/04/24 05:50:30;;;;;;;11.70;7.55;;;11.90;99.90;;;;;;5091895;28;20020;-78
2022/04/24 05:52:56;;;;;;;11.60;7.22;;;11.70;99.90;;;;;;5092762;28;20028;-78
2022/04/24 05:55:22;;;;;;;12.88;7.88;;;11.70;99.90;;;;;;5091966;28;20114;-78
2022/04/24 05:57:49;;;;;;;12.82;7.65;;;11.70;99.90;;;;;;5092255;28;20066;-78
2022/04/24 06:00:16;;;;;;;10.82;7.55;;;11.60;99.90;;;;;;5091627;28;20128;-78
2022/04/24 06:02:43;;;;;;;14.45;7.50;;;11.70;99.90;;;;;;5092854;28;20022;-78
2022/04/24 06:05:10;;;;;;;12.98;7.53;;;11.70;99.90;;;;;;5092963;28;20425;-78
2022/04/24 06:07:36;;;;;;;11.90;7.63;;;11.70;99.90;;;;;;5092084;28;20034;-78
2022/04/24 06:10:03;;;;;;;10.82;7.65;;;11.70;99.90;;;;;;5093679;28;20023;-78
2022/04/24 06:12:29;;;;;;;13.55;7.88;;;11.60;99.90;;;;;;5091922;28;20081;-77
2022/04/24 06:14:55;;;;;;;12.80;7.85;;;11.60;99.90;;;;;;5092601;28;20427;-78
2022/04/24 06:17:20;;;;;;;12.00;7.88;;;11.50;99.90;;;;;;5092352;28;20052;-77
2022/04/24 06:19:46;;;;;;;11.80;6.78;;;11.40;99.90;;;;;;5092567;28;20043;-78
2022/04/24 06:22:11;;;;;;;9.18;5.55;;;11.30;99.90;;;;;;5093676;28;20020;-78
2022/04/24 06:24:37;;;;;;;6.57;3.80;;;11.20;99.90;;;;;;5092207;28;20028;-78
2022/04/24 06:27:03;;;;;;;4.32;2.28;;;11.20;99.90;;;;;;5091894;28;20032;-78
2022/04/24 06:29:29;;;;;;;3.50;2.40;;;11.00;99.90;;;;;;5091444;28;20031;-76
2022/04/24 06:31:54;;;;;;;3.63;1.40;;;11.00;99.90;;;;;;5091764;28;20024;-77
2022/04/24 06:34:20;;;;;;;2.80;1.30;;;11.00;99.90;;;;;;5092421;28;20024;-77
2022/04/24 06:36:45;;;;;;;2.33;0.63;;;10.80;99.90;;;;;;5088419;28;20058;-77
2022/04/24 06:39:11;;;;;;;1.00;0.50;;;10.80;99.90;;;;;;5091658;28;20019;-78
2022/04/24 06:41:37;;;;;;;3.33;0.40;;;10.70;99.90;;;;;;5091291;28;20023;-77
2022/04/24 06:44:02;;;;;;;2.17;0.45;;;10.70;99.90;;;;;;5091644;28;20458;-78
2022/04/24 06:46:28;;;;;;;1.67;0.30;;;10.70;99.90;;;;;;5089847;28;20024;-77
2022/04/24 06:48:54;;;;;;;2.55;0.22;;;10.60;99.90;;;;;;5092146;28;20446;-77
2022/04/24 06:51:19;;;;;;;2.47;0.57;;;10.50;99.90;;;;;;5091830;28;20024;-76
2022/04/24 06:53:45;;;;;;;0.52;0.30;;;10.50;99.90;;;;;;5092795;28;20028;-75
2022/04/24 06:56:10;;;;;;;0.50;0.30;;;10.40;99.90;;;;;;5093868;28;20454;-88
2022/04/24 06:58:36;;;;;;;0.30;0.20;;;10.50;99.90;;;;;;5092729;28;20056;-89
2022/04/24 07:01:02;;;;;;;0.80;0.30;;;10.50;99.90;;;;;;5092669;28;20392;-89
2022/04/24 07:03:29;;;;;;;1.48;0.60;;;10.50;99.90;;;;;;5094807;28;20028;-89
2022/04/24 07:05:56;;;;;;;1.35;0.20;;;10.50;99.90;;;;;;5097125;28;20020;-88
2022/04/24 07:08:24;;;;;;;1.30;0.40;;;10.60;99.90;;;;;;5096319;28;20036;-89
2022/04/24 07:10:50;;;;;;;0.65;0.28;;;10.60;99.90;;;;;;5096937;28;20518;-85
2022/04/24 07:13:16;;;;;;;2.00;0.13;;;10.60;99.90;;;;;;5095572;28;20350;-82
2022/04/24 07:15:42;;;;;;;0.60;0.30;;;10.60;99.90;;;;;;5096170;28;20030;-82
2022/04/24 07:18:08;;;;;;;1.95;0.60;;;10.60;99.90;;;;;;5096695;28;20115;-83
2022/04/24 07:20:34;;;;;;;0.90;0.40;;;10.80;99.90;;;;;;5095417;28;20058;-82
2022/04/24 07:23:02;;;;;;;0.52;0.20;;;10.80;99.90;;;;;;5095552;28;20040;-84
2022/04/24 07:25:40;;;;;;;2.05;0.20;;;10.90;99.90;;;;;;5094960;28;20488;-82
2022/04/24 07:28:07;;;;;;;0.55;0.25;;;10.80;99.90;;;;;;5095606;28;20024;-82
2022/04/24 07:30:33;;;;;;;1.40;0.75;;;10.80;99.90;;;;;;5095065;28;20115;-82
2022/04/24 07:32:59;;;;;;;1.15;0.68;;;10.80;99.90;;;;;;5095795;28;20052;-83
2022/04/24 07:35:31;;;;;;;1.15;0.60;;;10.80;99.90;;;;;;5094959;28;20024;-82
2022/04/24 07:37:56;;;;;;;4.10;1.58;;;10.90;99.90;;;;;;5095254;28;20024;-82
2022/04/24 07:40:24;;;;;;;1.85;1.60;;;10.90;99.90;;;;;;5094809;28;20204;-82
2022/04/24 07:42:58;;;;;;;2.00;1.70;;;10.90;99.90;;;;;;5096355;28;20043;-82
2022/04/24 07:45:26;;;;;;;1.80;1.10;;;11.00;99.90;;;;;;5095929;28;20020;-82
2022/04/24 07:47:53;;;;;;;1.70;1.10;;;11.00;99.90;;;;;;5096303;28;20098;-82
2022/04/24 07:50:26;;;;;;;0.90;0.70;;;11.00;99.90;;;;;;5095809;28;20342;-82
2022/04/24 07:52:52;;;;;;;1.05;0.55;;;11.10;99.90;;;;;;5096358;28;20050;-81
2022/04/24 07:55:22;;;;;;;1.00;0.70;;;11.00;99.90;;;;;;5095723;28;20034;-80
2022/04/24 07:57:48;;;;;;;2.00;1.23;;;11.00;99.90;;;;;;5094615;28;20048;-82
2022/04/24 08:00:16;;;;;;;0.70;0.50;;;11.00;99.90;;;;;;5095561;28;20036;-82
2022/04/24 08:03:01;;;;;;;1.63;0.60;;;11.00;99.90;;;;;;5095411;28;20031;-82
2022/04/24 08:05:36;;;;;;;1.83;0.75;;;11.00;99.90;;;;;;5094604;28;20445;-81
2022/04/24 08:08:04;;;;;;;3.60;1.20;;;11.10;99.90;;;;;;5093318;28;20052;-80
2022/04/24 08:10:32;;;;;;;2.80;1.02;;;11.10;99.90;;;;;;5095697;28;20103;-81
2022/04/24 08:12:58;;;;;;;2.10;0.70;;;11.10;99.90;;;;;;5094555;28;20076;-81
2022/04/24 08:15:24;;;;;;;1.85;0.82;;;11.10;99.90;;;;;;5094170;28;20028;-81
2022/04/24 08:17:50;;;;;;;1.55;0.60;;;11.20;99.90;;;;;;5095354;28;20443;-81
2022/04/24 08:20:17;;;;;;;1.55;0.50;;;11.20;99.90;;;;;;5095462;28;20028;-81
2022/04/24 08:22:44;;;;;;;1.02;0.60;;;11.20;99.90;;;;;;5093959;28;20020;-81
2022/04/24 08:25:17;;;;;;;1.15;0.40;;;11.30;99.90;;;;;;5094099;28;20024;-81
2022/04/24 08:27:44;;;;;;;1.65;0.80;;;11.40;99.90;;;;;;5094124;28;20024;-81
2022/04/24 08:30:11;;;;;;;2.63;1.35;;;11.40;99.90;;;;;;5095212;28;20036;-82
2022/04/24 08:32:38;;;;;;;1.48;0.50;;;11.50;99.90;;;;;;5093765;28;20456;-82
2022/04/24 08:35:05;;;;;;;1.05;0.68;;;11.50;99.90;;;;;;5094509;28;20028;-81
2022/04/24 08:37:32;;;;;;;0.63;0.50;;;11.50;99.90;;;;;;5094735;28;20020;-81
2022/04/24 08:39:57;;;;;;;1.67;0.40;;;11.40;99.90;;;;;;5094214;28;20085;-81
2022/04/24 08:42:23;;;;;;;0.50;0.40;;;11.40;99.90;;;;;;5094852;28;20460;-81
2022/04/24 08:44:50;;;;;;;1.67;0.47;;;11.20;99.90;;;;;;5095221;28;20074;-82
2022/04/24 08:47:17;;;;;;;2.97;0.50;;;11.20;99.90;;;;;;5094077;28;20027;-81
2022/04/24 08:49:47;;;;;;;1.38;0.65;;;11.30;99.90;;;;;;5094325;28;20020;-81
2022/04/24 08:52:14;;;;;;;1.77;0.70;;;11.30;99.90;;;;;;5095183;28;20453;-82
2022/04/24 08:54:41;;;;;;;1.17;0.50;;;11.30;99.90;;;;;;5094782;28;20052;-82
2022/04/24 08:57:08;;;;;;;1.55;0.47;;;11.30;99.90;;;;;;5093595;28;20471;-81
2022/04/24 08:59:35;;;;;;;1.52;0.40;;;11.30;99.90;;;;;;5093140;28;20067;-82
2022/04/24 09:02:01;;;;;;;0.70;0.50;;;11.30;99.90;;;;;;5093476;28;20020;-81
2022/04/24 09:04:30;;;;;;;1.52;0.60;;;11.30;99.90;;;;;;5094437;28;20080;-81
2022/04/24 09:06:57;;;;;;;1.92;0.80;;;11.20;99.90;;;;;;5089314;28;20051;-81
2022/04/24 09:09:23;;;;;;;1.17;0.50;;;11.20;99.90;;;;;;5072863;28;20028;-81
2022/04/24 09:11:48;;;;;;;0.95;0.60;;;11.30;99.90;;;;;;5073360;28;20025;-82
2022/04/24 09:14:24;;;;;;;2.67;0.70;;;11.40;99.90;;;;;;5073486;28;20442;-82
2022/04/24 09:16:50;;;;;;;2.33;1.20;;;11.30;99.90;;;;;;5073443;28;20028;-81
2022/04/24 09:19:17;;;;;;;1.10;0.70;;;11.30;99.90;;;;;;5074537;28;20067;-82
2022/04/24 09:21:43;;;;;;;1.48;1.13;;;11.30;99.90;;;;;;5072834;28;20113;-82
2022/04/24 09:24:09;;;;;;;1.35;0.90;;;11.40;99.90;;;;;;5073407;28;20091;-82
2022/04/24 09:26:34;;;;;;;0.88;0.63;;;11.30;99.90;;;;;;5072354;28;20024;-81
2022/04/24 09:29:00;;;;;;;1.67;0.65;;;11.30;99.90;;;;;;5073324;28;20078;-82
2022/04/24 09:31:29;;;;;;;1.58;0.70;;;11.20;99.90;;;;;;5073698;28;20100;-81
2022/04/24 09:33:55;;;;;;;0.60;0.50;;;11.20;99.90;;;;;;5073140;28;20044;-81
2022/04/24 09:36:25;;;;;;;1.30;0.60;;;11.20;99.90;;;;;;5073154;28;20020;-82
2022/04/24 09:38:51;;;;;;;0.90;0.40;;;11.20;99.90;;;;;;5091459;28;20024;-82
2022/04/24 09:41:21;;;;;;;1.58;0.60;;;11.10;99.90;;;;;;5093207;28;20397;-82
2022/04/24 09:43:48;;;;;;;1.58;0.60;;;11.10;99.90;;;;;;5092503;28;20076;-82
2022/04/24 09:46:29;;;;;;;1.98;0.80;;;11.20;99.90;;;;;;5093265;28;20031;-82
2022/04/24 09:48:58;;;;;;;0.68;0.40;;;11.20;99.90;;;;;;5092862;28;20048;-82
2022/04/24 09:51:24;;;;;;;0.52;0.50;;;11.10;99.90;;;;;;5092291;28;20020;-79
2022/04/24 09:53:52;;;;;;;1.02;0.60;;;11.10;99.90;;;;;;5092675;28;20362;-82
2022/04/24 09:56:19;;;;;;;1.15;0.75;;;11.10;99.90;;;;;;5092859;28;20085;-81
2022/04/24 09:58:48;;;;;;;1.63;0.80;;;11.00;99.90;;;;;;5091973;28;20098;-82
2022/04/24 10:01:14;;;;;;;2.55;0.52;;;11.10;99.90;;;;;;5092916;28;20112;-81
2022/04/24 10:03:39;;;;;;;1.55;0.75;;;11.20;99.90;;;;;;5092381;28;20024;-81
2022/04/24 10:06:07;;;;;;;0.73;0.50;;;11.20;99.90;;;;;;5093993;28;20350;-81
2022/04/24 10:08:36;;;;;;;0.88;0.40;;;11.10;99.90;;;;;;5093268;28;20016;-81
2022/04/24 10:11:04;;;;;;;0.52;0.38;;;11.20;99.90;;;;;;5092917;28;20449;-81
2022/04/24 10:13:31;;;;;;;0.75;0.40;;;11.10;99.90;;;;;;5093186;28;20453;-81
2022/04/24 10:16:14;;;;;;;1.40;0.43;;;11.10;99.90;;;;;;5092690;28;20027;-81
2022/04/24 10:18:54;;;;;;;0.30;0.30;;;11.10;99.90;;;;;;5092019;28;20077;-81
2022/04/24 10:21:54;;;;;;;1.05;0.40;;;11.20;99.90;;;;;;5093938;28;20059;-81
2022/04/24 10:24:20;;;;;;;0.75;0.40;;;11.20;99.90;;;;;;5092094;28;20388;-81
2022/04/24 10:26:57;;;;;;;0.77;0.50;;;11.20;99.90;;;;;;5091941;28;20164;-82
2022/04/24 10:29:24;;;;;;;0.70;0.50;;;11.20;99.90;;;;;;5092824;28;20047;-81
2022/04/24 10:31:50;;;;;;;1.17;0.50;;;11.20;99.90;;;;;;5092245;28;20433;-81
2022/04/24 10:34:16;;;;;;;0.30;0.30;;;11.10;99.90;;;;;;5093872;28;20461;-81
2022/04/24 10:36:59;;;;;;;1.77;0.50;;;11.10;99.90;;;;;;5094925;28;20052;-81
2022/04/24 10:39:29;;;;;;;0.30;0.30;;;11.10;99.90;;;;;;5076454;28;20024;-81
2022/04/24 10:41:57;;;;;;;1.00;0.38;;;11.00;99.90;;;;;;5077443;28;20023;-82
2022/04/24 10:44:24;;;;;;;4.13;0.60;;;11.00;99.90;;;;;;5077227;28;20024;-81
2022/04/24 10:46:50;;;;;;;0.50;0.40;;;11.00;99.90;;;;;;5075729;28;20043;-81
2022/04/24 10:49:18;;;;;;;1.17;0.57;;;11.00;99.90;;;;;;5077271;28;20503;-82
2022/04/24 10:52:05;;;;;;;1.20;0.43;;;11.00;99.90;;;;;;5083567;28;20024;-82
2022/04/24 10:54:32;;;;;;;1.10;0.40;;;11.00;99.90;;;;;;5089980;28;20028;-81
2022/04/24 10:56:59;;;;;;;1.55;0.82;;;11.00;99.90;;;;;;5097406;28;20049;-81
2022/04/24 10:59:25;;;;;;;0.98;0.68;;;11.10;99.90;;;;;;5096508;28;20028;-81
2022/04/24 11:01:57;;;;;;;1.65;0.80;;;11.10;99.90;;;;;;5095685;28;20472;-82
2022/04/24 11:04:23;;;;;;;;;;;11.10;99.90;;;;;;5096570;28;20020;-82
2022/04/24 11:06:53;;;;;;;1.33;0.70;;;11.10;99.90;;;;;;5095351;28;20227;-82
2022/04/24 11:09:19;;;;;;;0.60;0.50;;;11.10;99.90;;;;;;5096852;28;20024;-82
2022/04/24 11:11:57;;;;;;;0.98;0.68;;;11.10;99.90;;;;;;5095197;28;20103;-82
2022/04/24 11:14:27;;;;;;;0.95;0.75;;;11.20;99.90;;;;;;5096159;28;20077;-82
2022/04/24 11:16:58;;;;;;;0.70;0.52;;;11.10;99.90;;;;;;5095307;28;20016;-82
2022/04/24 11:19:28;;;;;;;0.73;0.73;;;11.10;99.90;;;;;;5097081;28;20043;-82
2022/04/24 11:22:12;;;;;;;0.47;0.45;;;11.10;99.90;;;;;;5096370;28;20067;-82
2022/04/24 11:24:40;;;;;;;0.60;0.60;;;11.10;99.90;;;;;;5095219;28;20024;-82
2022/04/24 11:27:14;;;;;;;2.78;1.30;;;11.10;99.90;;;;;;5095543;28;20028;-82
2022/04/24 11:29:44;;;;;;;1.23;1.08;;;11.10;99.90;;;;;;5096364;28;20032;-82
2022/04/24 11:32:11;;;;;;;0.73;0.60;;;11.00;99.90;;;;;;5095804;28;20016;-82
2022/04/24 11:34:37;;;;;;;0.43;0.40;;;11.00;99.90;;;;;;5096268;28;20016;-82
2022/04/24 11:37:04;;;;;;;0.50;0.50;;;11.00;99.90;;;;;;5095466;28;20023;-82
2022/04/24 11:39:32;;;;;;;1.35;1.02;;;11.00;99.90;;;;;;5095429;28;20055;-79
2022/04/24 11:42:00;;;;;;;1.20;0.77;;;11.20;99.90;;;;;;5095411;28;20031;-82
2022/04/24 11:50:16;;;;;;;0.82;0.65;;;11.10;99.90;;;;;;5095412;28;20115;-82
2022/04/24 11:52:46;;;;;;;2.05;0.60;;;11.10;99.90;;;;;;5094975;28;20027;-82
2022/04/24 11:56:01;;;;;;;1.02;0.60;;;11.00;99.90;;;;;;5095292;28;20024;-82
2022/04/24 11:58:09;;;;;;;0.70;0.60;;;11.10;99.90;;;;;;5095862;28;20075;-81
2022/04/24 12:00:40;;;;;;;0.77;0.60;;;11.20;99.90;;;;;;5095627;28;20028;-82
2022/04/24 12:03:06;;;;;;;3.53;0.60;;;11.20;99.90;;;;;;5096018;28;20016;-82
2022/04/24 12:05:32;;;;;;;0.70;0.50;;;11.20;99.90;;;;;;5094542;28;20057;-78
2022/04/24 12:07:58;;;;;;;2.28;0.70;;;11.20;99.90;;;;;;5094960;28;20077;-82
2022/04/24 12:10:26;;;;;;;1.02;0.88;;;11.30;99.90;;;;;;5094705;28;20030;-81
2022/04/24 12:12:53;;;;;;;0.82;0.70;;;11.20;99.90;;;;;;5095369;28;20016;-82
2022/04/24 12:15:23;;;;;;;0.70;0.50;;;11.30;99.90;;;;;;5094746;28;20043;-82
2022/04/24 12:17:53;;;;;;;1.67;0.60;;;11.20;99.90;;;;;;5095208;28;20024;-82
2022/04/24 12:20:19;;;;;;;0.90;0.70;;;11.20;99.90;;;;;;5095710;28;20031;-82
2022/04/24 12:22:45;;;;;;;2.63;0.68;;;11.20;99.90;;;;;;5095327;28;20017;-82
2022/04/24 12:25:18;;;;;;;1.10;0.98;;;11.20;99.90;;;;;;5095631;28;20012;-82
2022/04/24 12:27:54;;;;;;;0.82;0.68;;;11.20;99.90;;;;;;5095364;28;20069;-82
2022/04/24 12:30:20;;;;;;;1.60;0.63;;;11.30;99.90;;;;;;5093950;28;20028;-81
2022/04/24 12:32:46;;;;;;;1.20;0.80;;;11.30;99.90;;;;;;5093778;28;20035;-82
2022/04/24 12:35:26;;;;;;;1.08;0.80;;;11.30;99.90;;;;;;5094290;28;20024;-82
2022/04/24 12:37:52;;;;;;;1.50;0.90;;;11.40;99.90;;;;;;5091433;28;20020;-81
2022/04/24 12:40:18;;;;;;;1.42;0.68;;;11.40;99.90;;;;;;5073821;28;20081;-82
2022/04/24 12:42:55;;;;;;;1.20;0.80;;;11.50;99.90;;;;;;5073627;28;20059;-82
2022/04/24 12:45:21;;;;;;;0.80;0.70;;;11.50;99.90;;;;;;5075175;28;20024;-82
2022/04/24 12:47:48;;;;;;;1.00;0.75;;;11.50;99.90;;;;;;5073468;28;20028;-81
2022/04/24 12:50:14;;;;;;;0.85;0.70;;;11.50;99.90;;;;;;5074141;28;20020;-82